Time;durP1;ratioP1;P1;durP2;ratioP2;P2;SDS_P1;SDS_P2;PMS_P1;PMS_P2;Temp;Humidity;BMP_temperature;BMP_pressure;BME280_temperature;BME280_humidity;BME280_pressure;Samples;Min_cycle;Max_cycle;Signal;HPM_P1;HPM_P2
2022/08/05 00:01:48;;;;;;;9.65;2.10;;;18.80;99.90;;;;;;5051492;28;20509;-78
2022/08/05 00:04:13;;;;;;;9.43;2.88;;;18.80;99.90;;;;;;5051634;28;20052;-77
2022/08/05 00:06:39;;;;;;;4.18;2.25;;;18.80;99.90;;;;;;5051550;28;20069;-78
2022/08/05 00:09:05;;;;;;;6.63;1.95;;;18.80;99.90;;;;;;5051636;28;20039;-78
2022/08/05 00:11:30;;;;;;;5.57;2.08;;;18.80;99.90;;;;;;5052682;28;20507;-78
2022/08/05 00:13:56;;;;;;;5.97;2.35;;;18.80;99.90;;;;;;5051710;28;20419;-78
2022/08/05 00:16:22;;;;;;;7.93;2.15;;;18.70;99.90;;;;;;5051470;28;20041;-77
2022/08/05 00:18:48;;;;;;;6.18;2.40;;;18.70;99.90;;;;;;5051160;28;20055;-78
2022/08/05 00:21:15;;;;;;;5.50;2.30;;;18.70;99.90;;;;;;5050996;28;20037;-78
2022/08/05 00:23:42;;;;;;;4.82;1.88;;;18.70;99.90;;;;;;5051358;28;20468;-77
2022/08/05 00:26:09;;;;;;;10.77;2.47;;;18.80;99.90;;;;;;5051007;28;20052;-78
2022/08/05 00:28:35;;;;;;;4.57;2.35;;;18.70;99.90;;;;;;5051209;28;20036;-79
2022/08/05 00:31:01;;;;;;;7.43;2.35;;;18.80;99.90;;;;;;5051128;28;20041;-78
2022/08/05 00:33:27;;;;;;;6.57;2.47;;;18.80;99.90;;;;;;5051033;28;20041;-79
2022/08/05 00:35:53;;;;;;;9.40;2.28;;;18.80;99.90;;;;;;5051109;28;20056;-78
2022/08/05 00:38:18;;;;;;;5.30;2.13;;;18.80;99.90;;;;;;5051064;28;20045;-78
2022/08/05 00:40:47;;;;;;;7.53;2.35;;;18.90;99.90;;;;;;5050936;28;20037;-78
2022/08/05 00:43:13;;;;;;;7.57;2.00;;;18.90;99.90;;;;;;5051275;28;20091;-78
2022/08/05 00:45:39;;;;;;;6.85;2.50;;;18.90;99.90;;;;;;5050938;28;20044;-77
2022/08/05 00:48:05;;;;;;;7.05;2.15;;;18.90;99.90;;;;;;5034192;28;20385;-78
2022/08/05 00:50:31;;;;;;;4.45;1.77;;;18.90;99.90;;;;;;5050547;28;20059;-79
2022/08/05 00:52:57;;;;;;;6.18;1.90;;;18.90;99.90;;;;;;5051085;28;20045;-77
2022/08/05 00:55:23;;;;;;;6.28;2.42;;;18.90;99.90;;;;;;5050779;28;20087;-78
2022/08/05 00:57:48;;;;;;;12.05;2.28;;;18.90;99.90;;;;;;5050628;28;20401;-78
2022/08/05 01:00:14;;;;;;;7.60;2.08;;;18.80;99.90;;;;;;5050280;28;20033;-78
2022/08/05 01:02:40;;;;;;;3.88;1.98;;;18.80;99.90;;;;;;5050510;28;20116;-78
2022/08/05 01:05:06;;;;;;;9.82;2.58;;;18.80;99.90;;;;;;5050793;28;20433;-78
2022/08/05 01:07:31;;;;;;;6.60;2.00;;;18.80;99.90;;;;;;5050821;28;20459;-78
2022/08/05 01:09:57;;;;;;;6.05;2.55;;;18.80;99.90;;;;;;5050175;28;20045;-78
2022/08/05 01:12:24;;;;;;;4.88;2.47;;;18.80;99.90;;;;;;5051752;28;20116;-78
2022/08/05 01:15:04;;;;;;;4.32;2.03;;;18.80;99.90;;;;;;5050402;28;20561;-79
2022/08/05 01:17:49;;;;;;;6.22;2.42;;;18.80;99.90;;;;;;5051538;28;20095;-78
2022/08/05 01:20:39;;;;;;;2.95;2.20;;;18.80;99.90;;;;;;5050269;28;20045;-78
2022/08/05 01:23:30;;;;;;;5.40;2.05;;;18.80;99.90;;;;;;5050409;28;20545;-78
2022/08/05 01:26:28;;;;;;;8.63;2.10;;;18.80;99.90;;;;;;5050132;28;20043;-78
2022/08/05 01:29:02;;;;;;;4.78;1.98;;;18.80;99.90;;;;;;5051773;28;20040;-78
2022/08/05 01:31:34;;;;;;;4.82;2.25;;;18.70;99.90;;;;;;5050093;28;20072;-78
2022/08/05 01:34:17;;;;;;;5.97;2.17;;;18.80;99.90;;;;;;5050275;28;20403;-77
2022/08/05 01:36:48;;;;;;;5.18;1.90;;;18.70;99.90;;;;;;5049946;28;20053;-79
2022/08/05 01:39:15;;;;;;;5.60;2.58;;;18.60;99.90;;;;;;5050262;28;20045;-78
2022/08/05 01:41:44;;;;;;;6.07;2.42;;;18.70;99.90;;;;;;5049952;28;20072;-77
2022/08/05 01:44:12;;;;;;;7.57;2.38;;;18.60;99.90;;;;;;5049703;28;20045;-77
2022/08/05 01:46:40;;;;;;;5.03;2.33;;;18.60;99.90;;;;;;5050441;28;20049;-78
2022/08/05 01:49:08;;;;;;;5.13;2.42;;;18.60;99.90;;;;;;5049713;28;20428;-78
2022/08/05 01:51:35;;;;;;;6.00;2.45;;;18.60;99.90;;;;;;5049441;28;20080;-77
2022/08/05 01:54:04;;;;;;;7.82;2.72;;;18.60;99.90;;;;;;5049742;28;20045;-78
2022/08/05 01:56:33;;;;;;;6.07;3.08;;;18.60;99.90;;;;;;5049683;28;20041;-78
2022/08/05 01:59:02;;;;;;;7.60;2.75;;;18.60;99.90;;;;;;5049508;28;20484;-77
2022/08/05 02:01:30;;;;;;;8.25;2.65;;;18.50;99.90;;;;;;5049417;28;20084;-78
2022/08/05 02:03:58;;;;;;;5.22;2.45;;;18.50;99.90;;;;;;5049824;28;20468;-78
2022/08/05 02:06:24;;;;;;;8.55;3.38;;;18.50;99.90;;;;;;5049672;28;20086;-78
2022/08/05 02:08:50;;;;;;;8.95;2.50;;;18.50;99.90;;;;;;5049682;28;20049;-77
2022/08/05 02:11:16;;;;;;;7.40;2.70;;;18.50;99.90;;;;;;5049170;28;20519;-78
2022/08/05 02:14:26;;;;;;;5.10;3.17;;;18.50;99.90;;;;;;5049398;28;20052;-78
2022/08/05 02:16:54;;;;;;;5.25;2.80;;;18.50;99.90;;;;;;4972827;28;20050;-78
2022/08/05 02:19:47;;;;;;;4.57;2.65;;;18.50;99.90;;;;;;4972678;28;20047;-78
2022/08/05 02:22:21;;;;;;;6.97;2.67;;;18.50;99.90;;;;;;5022639;28;20053;-78
2022/08/05 02:24:52;;;;;;;8.45;3.30;;;18.50;99.90;;;;;;5049664;28;20095;-77
2022/08/05 02:27:20;;;;;;;14.55;3.13;;;18.50;99.90;;;;;;5049636;28;20558;-78
2022/08/05 02:29:47;;;;;;;8.13;2.50;;;18.40;99.90;;;;;;5049427;28;20045;-77
2022/08/05 02:32:17;;;;;;;3.53;2.78;;;18.50;99.90;;;;;;5049612;28;20503;-78
2022/08/05 02:34:44;;;;;;;6.45;2.70;;;18.50;99.90;;;;;;5049796;28;20492;-78
2022/08/05 02:37:11;;;;;;;8.80;2.90;;;18.40;99.90;;;;;;5049441;28;20041;-79
2022/08/05 02:39:39;;;;;;;7.00;2.30;;;18.50;99.90;;;;;;5049355;28;20037;-77
2022/08/05 02:42:06;;;;;;;5.93;2.85;;;18.40;99.90;;;;;;5052065;28;20073;-79
2022/08/05 02:44:36;;;;;;;6.75;2.85;;;18.40;99.90;;;;;;5049251;28;20041;-78
2022/08/05 02:47:07;;;;;;;5.47;2.92;;;18.40;99.90;;;;;;5049211;28;20048;-77
2022/08/05 02:49:37;;;;;;;13.93;3.28;;;18.40;99.90;;;;;;5048938;28;20069;-78
2022/08/05 02:52:06;;;;;;;6.55;2.83;;;18.40;99.90;;;;;;5049331;28;20377;-78
2022/08/05 02:54:33;;;;;;;5.88;3.55;;;18.40;99.90;;;;;;5049333;28;20049;-77
2022/08/05 02:56:59;;;;;;;3.50;2.58;;;18.40;99.90;;;;;;5050545;28;20079;-77
2022/08/05 02:59:27;;;;;;;6.30;2.80;;;18.40;99.90;;;;;;5052708;28;20037;-78
2022/08/05 03:01:59;;;;;;;6.32;2.53;;;18.30;99.90;;;;;;5052848;28;20052;-78
2022/08/05 03:04:25;;;;;;;7.45;2.90;;;18.30;99.90;;;;;;5052911;28;20041;-78
2022/08/05 03:06:51;;;;;;;6.97;3.00;;;18.40;99.90;;;;;;5053271;28;20404;-78
2022/08/05 03:09:17;;;;;;;6.53;3.42;;;18.30;99.90;;;;;;5053052;28;20041;-77
2022/08/05 03:11:42;;;;;;;5.07;2.92;;;18.30;99.90;;;;;;5055404;28;20496;-77
2022/08/05 03:14:08;;;;;;;7.50;2.90;;;18.30;99.90;;;;;;5060120;28;20507;-77
2022/08/05 03:16:34;;;;;;;9.52;3.00;;;18.30;99.90;;;;;;5060204;28;20060;-78
2022/08/05 03:19:00;;;;;;;5.45;2.65;;;18.30;99.90;;;;;;5052716;28;20492;-77
2022/08/05 03:21:26;;;;;;;7.10;2.90;;;18.30;99.90;;;;;;5052792;28;20043;-78
2022/08/05 03:23:52;;;;;;;5.32;2.60;;;18.20;99.90;;;;;;5052796;28;20079;-77
2022/08/05 03:26:18;;;;;;;7.55;2.95;;;18.20;99.90;;;;;;5052649;28;20056;-78
2022/08/05 03:28:43;;;;;;;8.15;2.40;;;18.20;99.90;;;;;;5052582;28;20557;-78
2022/08/05 03:31:10;;;;;;;13.68;3.42;;;18.20;99.90;;;;;;5052399;28;20323;-78
2022/08/05 03:33:36;;;;;;;6.38;2.90;;;18.20;99.90;;;;;;5052503;28;20079;-78
2022/08/05 03:36:02;;;;;;;6.43;2.60;;;18.20;99.90;;;;;;5052327;28;20076;-77
2022/08/05 03:38:28;;;;;;;5.05;2.60;;;18.20;99.90;;;;;;5052249;28;20091;-78
2022/08/05 03:40:53;;;;;;;7.05;2.72;;;18.20;99.90;;;;;;5051720;28;20040;-78
2022/08/05 03:43:20;;;;;;;6.38;2.38;;;18.10;99.90;;;;;;5052073;28;20036;-78
2022/08/05 03:45:46;;;;;;;5.78;2.35;;;18.10;99.90;;;;;;5052120;28;20045;-77
2022/08/05 03:48:12;;;;;;;4.20;2.85;;;18.10;99.90;;;;;;5052263;28;20041;-78
2022/08/05 03:50:52;;;;;;;5.53;3.03;;;18.00;99.90;;;;;;5051466;28;20053;-77
2022/08/05 03:53:42;;;;;;;5.35;2.33;;;18.10;99.90;;;;;;5051863;28;20049;-78
2022/08/05 03:56:20;;;;;;;6.82;2.60;;;18.10;99.90;;;;;;5051201;28;20088;-78
2022/08/05 03:58:47;;;;;;;4.80;2.50;;;18.00;99.90;;;;;;5051814;28;20389;-77
2022/08/05 04:01:16;;;;;;;5.63;2.60;;;18.00;99.90;;;;;;5051563;28;20484;-79
2022/08/05 04:03:45;;;;;;;7.38;2.50;;;18.00;99.90;;;;;;5051934;28;20048;-78
2022/08/05 04:06:11;;;;;;;8.77;3.42;;;18.00;99.90;;;;;;5051426;28;20115;-77
2022/08/05 04:08:37;;;;;;;7.45;2.92;;;18.00;99.90;;;;;;5052010;28;20052;-77
2022/08/05 04:11:06;;;;;;;7.65;2.70;;;17.90;99.90;;;;;;5051380;28;20408;-77
2022/08/05 04:13:32;;;;;;;10.23;3.00;;;17.90;99.90;;;;;;5034794;28;20037;-77
2022/08/05 04:15:57;;;;;;;6.55;2.83;;;17.90;99.90;;;;;;5051388;28;20045;-77
2022/08/05 04:18:23;;;;;;;4.50;2.53;;;17.90;99.90;;;;;;5051064;28;20037;-78
2022/08/05 04:20:53;;;;;;;8.43;2.80;;;17.90;99.90;;;;;;5050946;28;20064;-78
2022/08/05 04:23:20;;;;;;;7.53;3.05;;;17.90;99.90;;;;;;5051071;28;20044;-77
2022/08/05 04:25:46;;;;;;;8.10;3.00;;;17.90;99.90;;;;;;5052344;28;20045;-77
2022/08/05 04:28:11;;;;;;;3.42;2.55;;;17.90;99.90;;;;;;5051491;28;20041;-78
2022/08/05 04:30:37;;;;;;;7.20;2.75;;;17.80;99.90;;;;;;5050712;28;20044;-77
2022/08/05 04:33:02;;;;;;;5.75;3.10;;;17.90;99.90;;;;;;5051072;28;20314;-77
2022/08/05 04:35:28;;;;;;;8.13;3.53;;;17.80;99.90;;;;;;5051299;28;20083;-78
2022/08/05 04:37:53;;;;;;;5.63;3.00;;;17.80;99.90;;;;;;5051177;28;20056;-79
2022/08/05 04:40:19;;;;;;;6.78;2.90;;;17.90;99.90;;;;;;5050798;28;20562;-77
2022/08/05 04:42:45;;;;;;;8.63;3.00;;;17.90;99.90;;;;;;5052320;28;20068;-77
2022/08/05 04:45:10;;;;;;;4.10;2.33;;;17.90;99.90;;;;;;5050980;28;20049;-77
2022/08/05 04:47:36;;;;;;;4.53;2.75;;;17.90;99.90;;;;;;5052047;28;20067;-78
2022/08/05 04:50:01;;;;;;;6.97;2.70;;;17.90;99.90;;;;;;5050423;28;20496;-77
2022/08/05 04:52:27;;;;;;;3.55;2.70;;;17.90;99.90;;;;;;5050655;28;20066;-77
2022/08/05 04:54:52;;;;;;;4.55;2.90;;;17.90;99.90;;;;;;5050524;28;20118;-77
2022/08/05 04:57:18;;;;;;;8.18;3.22;;;17.90;99.90;;;;;;5050410;28;20044;-78
2022/08/05 04:59:44;;;;;;;6.25;3.00;;;17.80;99.90;;;;;;5050130;28;20570;-77
2022/08/05 05:02:09;;;;;;;7.68;3.28;;;17.80;99.90;;;;;;5050346;28;20045;-77
2022/08/05 05:04:35;;;;;;;4.72;3.13;;;17.80;99.90;;;;;;5051679;28;20033;-77
2022/08/05 05:07:00;;;;;;;7.38;3.80;;;17.90;99.90;;;;;;5051660;28;20049;-78
2022/08/05 05:09:26;;;;;;;6.65;3.03;;;17.90;99.90;;;;;;5050065;28;20060;-79
2022/08/05 05:11:51;;;;;;;7.90;3.30;;;17.90;99.90;;;;;;5050066;28;20064;-77
2022/08/05 05:14:17;;;;;;;6.15;3.42;;;17.90;99.90;;;;;;5050159;28;20044;-77
2022/08/05 05:16:43;;;;;;;7.13;3.42;;;17.90;99.90;;;;;;5051541;28;20123;-78
2022/08/05 05:19:08;;;;;;;6.60;2.95;;;17.90;99.90;;;;;;5049796;28;20618;-77
2022/08/05 05:21:34;;;;;;;4.85;2.83;;;17.90;99.90;;;;;;5049738;28;20044;-77
2022/08/05 05:23:59;;;;;;;4.00;2.70;;;17.90;99.90;;;;;;5049929;28;20037;-76
2022/08/05 05:26:25;;;;;;;8.05;3.90;;;17.90;99.90;;;;;;5050349;28;20122;-78
2022/08/05 05:28:50;;;;;;;5.95;3.58;;;17.90;99.90;;;;;;5050033;28;20052;-77
2022/08/05 05:31:16;;;;;;;8.60;3.45;;;17.90;99.90;;;;;;5049902;28;20127;-77
2022/08/05 05:33:41;;;;;;;6.97;3.00;;;17.90;99.90;;;;;;5049926;28;20052;-77
2022/08/05 05:36:07;;;;;;;4.30;2.90;;;18.00;99.90;;;;;;5049796;28;20538;-78
2022/08/05 05:38:33;;;;;;;3.88;2.65;;;17.90;99.90;;;;;;5049815;28;20045;-76
2022/08/05 05:40:59;;;;;;;4.93;2.63;;;17.90;99.90;;;;;;5049467;28;20033;-76
2022/08/05 05:43:24;;;;;;;9.02;3.28;;;17.90;99.90;;;;;;5050206;28;20090;-77
2022/08/05 05:45:50;;;;;;;6.28;3.00;;;17.90;99.90;;;;;;5049486;28;20488;-77
2022/08/05 05:48:16;;;;;;;6.22;3.35;;;17.90;99.90;;;;;;5049819;28;20095;-78
2022/08/05 05:50:42;;;;;;;5.72;3.25;;;18.00;99.90;;;;;;5049476;28;20072;-77
2022/08/05 05:53:09;;;;;;;5.63;3.15;;;18.00;99.90;;;;;;5049540;28;20876;-77
2022/08/05 05:55:34;;;;;;;8.95;3.45;;;18.00;99.90;;;;;;5033098;28;20127;-77
2022/08/05 05:58:00;;;;;;;5.43;2.97;;;18.10;99.90;;;;;;5049567;28;20136;-77
2022/08/05 06:00:26;;;;;;;6.95;3.17;;;18.10;99.90;;;;;;5049392;28;20048;-77
2022/08/05 06:02:51;;;;;;;8.77;3.10;;;18.20;99.90;;;;;;5049425;28;20095;-77
2022/08/05 06:05:17;;;;;;;6.43;3.38;;;18.20;99.90;;;;;;5049495;28;20029;-78
2022/08/05 06:07:44;;;;;;;6.22;2.90;;;18.30;99.90;;;;;;5049454;28;20091;-77
2022/08/05 06:10:11;;;;;;;4.82;2.78;;;18.30;99.90;;;;;;5049092;28;20138;-77
2022/08/05 06:12:37;;;;;;;6.68;2.70;;;18.40;99.90;;;;;;5049537;28;20128;-77
2022/08/05 06:15:05;;;;;;;4.70;2.75;;;18.40;99.90;;;;;;5049418;28;20051;-77
2022/08/05 06:17:31;;;;;;;5.72;2.97;;;18.50;99.90;;;;;;5049239;28;20568;-78
2022/08/05 06:19:57;;;;;;;7.18;3.45;;;18.50;99.90;;;;;;5050467;28;20041;-78
2022/08/05 06:22:25;;;;;;;4.43;2.78;;;18.50;99.90;;;;;;5049562;28;20400;-78
2022/08/05 06:24:51;;;;;;;3.97;2.95;;;18.50;99.90;;;;;;5049524;28;20037;-77
2022/08/05 06:27:17;;;;;;;5.60;3.03;;;18.40;99.90;;;;;;5049273;28;20119;-78
2022/08/05 06:29:42;;;;;;;5.10;2.95;;;18.50;99.90;;;;;;5032387;28;20488;-77
2022/08/05 06:32:09;;;;;;;8.63;3.30;;;18.40;99.90;;;;;;5052407;28;20036;-77
2022/08/05 06:34:35;;;;;;;8.20;3.30;;;18.50;99.90;;;;;;5053434;28;20511;-78
2022/08/05 06:37:00;;;;;;;7.10;3.65;;;18.50;99.90;;;;;;5053292;28;20037;-78
2022/08/05 06:39:26;;;;;;;4.68;3.00;;;18.60;99.90;;;;;;5053248;28;20041;-82
2022/08/05 06:41:52;;;;;;;5.63;3.80;;;18.60;99.90;;;;;;5058335;28;20041;-77
2022/08/05 06:44:17;;;;;;;7.47;3.33;;;18.70;99.90;;;;;;5063106;28;20029;-78
2022/08/05 06:46:43;;;;;;;5.43;3.45;;;18.80;99.90;;;;;;5062825;28;20140;-77
2022/08/05 06:49:08;;;;;;;8.65;3.25;;;18.90;99.90;;;;;;5053390;28;20304;-77
2022/08/05 06:51:34;;;;;;;4.95;3.13;;;18.90;99.90;;;;;;5052962;28;20492;-78
2022/08/05 06:54:02;;;;;;;7.95;3.30;;;18.90;99.90;;;;;;5052979;28;20051;-77
2022/08/05 06:56:28;;;;;;;7.20;3.38;;;19.00;99.90;;;;;;5036110;28;20488;-78
2022/08/05 06:58:54;;;;;;;6.70;3.22;;;19.10;99.90;;;;;;5054008;28;20052;-78
2022/08/05 07:01:20;;;;;;;7.03;3.03;;;19.30;99.90;;;;;;5052659;28;20045;-78
2022/08/05 07:03:46;;;;;;;5.40;3.38;;;19.30;99.90;;;;;;5052838;28;20044;-78
2022/08/05 07:06:11;;;;;;;5.13;2.47;;;19.50;99.90;;;;;;5052744;28;20048;-77
2022/08/05 07:08:37;;;;;;;4.97;2.55;;;19.70;99.90;;;;;;5052793;28;20055;-78
2022/08/05 07:11:04;;;;;;;4.68;2.15;;;19.70;99.90;;;;;;5052277;28;20116;-78
2022/08/05 07:19:00;;;;;;;3.70;2.15;;;19.80;99.90;;;;;;5052399;28;20056;-79
2022/08/05 07:21:26;;;;;;;4.28;1.70;;;19.90;99.90;;;;;;5052074;28;20037;-77
2022/08/05 07:23:51;;;;;;;3.05;1.90;;;20.00;99.90;;;;;;5052234;28;20408;-78
2022/08/05 07:26:17;;;;;;;7.15;2.33;;;20.00;99.90;;;;;;5035807;28;20025;-79
2022/08/05 07:28:43;;;;;;;3.47;1.83;;;20.20;99.90;;;;;;5051943;28;20044;-78
2022/08/05 07:31:08;;;;;;;5.80;1.73;;;20.70;99.90;;;;;;5041329;28;20041;-78
2022/08/05 07:33:34;;;;;;;3.47;1.33;;;21.60;99.90;;;;;;5059833;28;20089;-78
2022/08/05 07:36:00;;;;;;;4.53;1.00;;;22.50;99.90;;;;;;5075647;28;20437;-78
2022/08/05 07:38:26;;;;;;;4.82;1.10;;;23.40;99.90;;;;;;5093367;28;20051;-79
2022/08/05 07:40:52;;;;;;;1.58;1.10;;;24.10;99.90;;;;;;5075227;28;20070;-78
2022/08/05 07:43:18;;;;;;;5.60;1.27;;;24.70;99.90;;;;;;5070076;28;20040;-78
2022/08/05 07:45:44;;;;;;;2.33;0.80;;;24.70;99.90;;;;;;5044168;28;20040;-78
2022/08/05 07:48:10;;;;;;;7.20;1.25;;;24.30;99.90;;;;;;5039647;28;20083;-78
2022/08/05 07:50:36;;;;;;;2.15;0.98;;;23.90;99.90;;;;;;5052106;28;20106;-78
2022/08/05 07:53:02;;;;;;;6.88;2.25;;;23.60;99.90;;;;;;5041493;28;20040;-81
2022/08/05 07:55:28;;;;;;;2.10;0.68;;;23.40;99.90;;;;;;5028823;28;20045;-82
2022/08/05 07:57:53;;;;;;;2.42;1.00;;;23.40;99.90;;;;;;5029278;28;20151;-82
2022/08/05 08:00:19;;;;;;;1.23;0.50;;;23.40;99.90;;;;;;5052562;28;20036;-83
2022/08/05 08:02:45;;;;;;;2.33;0.80;;;23.30;99.90;;;;;;5042320;28;20142;-82
2022/08/05 08:05:10;;;;;;;3.75;1.10;;;23.10;99.90;;;;;;5048174;28;20039;-82
2022/08/05 08:07:36;;;;;;;6.68;1.00;;;23.10;99.90;;;;;;5050330;28;20032;-81
2022/08/05 08:10:02;;;;;;;1.38;1.08;;;23.10;99.90;;;;;;5049227;28;20134;-82
2022/08/05 08:12:28;;;;;;;1.00;0.80;;;23.30;99.90;;;;;;5035469;28;20064;-81
2022/08/05 08:14:54;;;;;;;1.45;0.95;;;23.30;99.90;;;;;;5051481;28;20036;-80
2022/08/05 08:17:20;;;;;;;2.00;0.95;;;23.10;99.90;;;;;;5030324;28;20043;-82
2022/08/05 08:19:45;;;;;;;2.08;0.70;;;23.00;99.90;;;;;;5066049;28;20147;-82
2022/08/05 08:22:11;;;;;;;2.50;0.85;;;22.90;99.90;;;;;;5046157;28;20123;-81
2022/08/05 08:24:37;;;;;;;2.63;0.90;;;22.80;99.90;;;;;;5053413;28;20211;-81
2022/08/05 08:27:04;;;;;;;4.18;0.82;;;23.10;99.90;;;;;;5053629;28;20029;-82
2022/08/05 08:29:30;;;;;;;3.00;0.90;;;23.60;99.90;;;;;;5050952;28;20037;-81
2022/08/05 08:31:55;;;;;;;3.05;0.90;;;23.90;99.90;;;;;;5049626;28;20510;-81
2022/08/05 08:34:25;;;;;;;3.83;0.80;;;23.90;99.90;;;;;;5053663;28;20041;-81
2022/08/05 08:36:51;;;;;;;3.47;0.90;;;23.70;99.90;;;;;;5050457;28;20175;-81
2022/08/05 08:39:17;;;;;;;2.35;1.30;;;23.50;99.90;;;;;;5052983;28;20054;-81
2022/08/05 08:41:46;;;;;;;1.95;0.77;;;23.30;99.90;;;;;;5055762;28;20127;-81
2022/08/05 08:44:14;;;;;;;2.53;1.00;;;23.20;99.90;;;;;;5055054;28;20107;-82
2022/08/05 08:46:40;;;;;;;2.53;0.80;;;23.20;99.90;;;;;;5051768;28;20098;-81
2022/08/05 08:49:07;;;;;;;1.85;0.73;;;23.20;99.90;;;;;;5053326;28;20104;-81
2022/08/05 08:51:35;;;;;;;1.52;0.80;;;23.10;99.90;;;;;;5056329;28;20442;-80
2022/08/05 08:54:01;;;;;;;1.42;0.70;;;23.10;99.90;;;;;;5054721;28;20036;-81
2022/08/05 08:56:27;;;;;;;3.13;0.45;;;23.20;99.90;;;;;;5053277;28;20491;-80
2022/08/05 08:58:53;;;;;;;2.55;0.57;;;23.50;99.90;;;;;;5051418;28;20063;-81
2022/08/05 09:01:20;;;;;;;0.95;0.40;;;23.90;99.90;;;;;;5041527;28;20523;-82
2022/08/05 09:03:51;;;;;;;2.28;0.52;;;24.50;99.90;;;;;;5048546;28;20040;-80
2022/08/05 09:06:17;;;;;;;;;;;24.70;99.90;;;;;;5053211;28;20032;-80
2022/08/05 09:08:42;;;;;;;2.75;0.63;;;24.80;96.00;;;;;;5065603;28;20356;-80
2022/08/05 09:11:08;;;;;;;2.40;0.73;;;24.90;99.90;;;;;;5046156;28;20048;-80
2022/08/05 09:13:35;;;;;;;1.63;0.50;;;24.70;99.90;;;;;;5040855;28;20048;-81
2022/08/05 09:16:02;;;;;;;2.67;0.40;;;24.50;98.80;;;;;;5066612;28;20074;-81
2022/08/05 09:18:28;;;;;;;4.15;0.80;;;24.60;98.70;;;;;;5045552;28;20099;-80
2022/08/05 09:20:54;;;;;;;1.63;0.60;;;24.80;97.40;;;;;;5046168;28;20029;-81
2022/08/05 09:23:20;;;;;;;1.58;0.65;;;24.90;97.10;;;;;;5050504;28;20533;-80
2022/08/05 09:25:49;;;;;;;2.13;0.70;;;24.60;94.20;;;;;;5046768;28;20044;-80
2022/08/05 09:28:19;;;;;;;1.20;0.45;;;24.40;93.00;;;;;;5051606;28;20041;-80
2022/08/05 09:30:57;;;;;;;1.88;0.60;;;24.20;93.40;;;;;;5028610;28;20028;-81
2022/08/05 09:33:23;;;;;;;2.42;0.70;;;23.90;92.90;;;;;;5051119;28;20040;-80
2022/08/05 09:35:57;;;;;;;1.05;0.52;;;23.80;93.80;;;;;;5070859;28;20049;-81
2022/08/05 09:38:22;;;;;;;3.55;0.50;;;24.00;92.30;;;;;;5063733;28;20098;-79
2022/08/05 09:40:48;;;;;;;1.25;0.30;;;24.10;91.70;;;;;;5051070;28;20398;-79
2022/08/05 09:43:34;;;;;;;3.60;0.50;;;24.20;89.50;;;;;;5037425;28;20565;-80
2022/08/05 09:46:01;;;;;;;1.50;0.40;;;24.80;84.10;;;;;;5072441;28;20087;-81
2022/08/05 09:48:29;;;;;;;0.75;0.40;;;25.30;83.90;;;;;;5071956;28;20143;-80
2022/08/05 09:51:04;;;;;;;1.60;0.52;;;26.00;83.40;;;;;;5062056;28;20078;-79
2022/08/05 09:53:49;;;;;;;3.30;0.28;;;26.10;80.50;;;;;;5037129;28;20448;-80
2022/08/05 09:56:24;;;;;;;0.88;0.40;;;25.90;75.00;;;;;;5054619;28;20088;-78
2022/08/05 09:59:03;;;;;;;4.20;1.00;;;26.10;79.80;;;;;;5049381;28;20115;-79
2022/08/05 10:01:32;;;;;;;3.75;0.47;;;26.20;70.10;;;;;;5032647;28;20044;-80
2022/08/05 10:04:12;;;;;;;1.45;0.50;;;26.30;73.70;;;;;;5059109;28;20040;-80
2022/08/05 10:06:58;;;;;;;3.47;0.63;;;26.50;70.00;;;;;;5052581;28;20040;-80
2022/08/05 10:09:24;;;;;;;2.70;0.50;;;26.20;69.00;;;;;;5044155;28;20522;-81
2022/08/05 10:11:49;;;;;;;1.95;0.30;;;25.90;71.60;;;;;;5039377;28;20331;-80
2022/08/05 10:14:30;;;;;;;2.40;0.50;;;25.80;70.50;;;;;;5028808;28;20124;-79
2022/08/05 10:17:10;;;;;;;1.23;0.45;;;25.80;62.50;;;;;;5050255;28;20151;-79
2022/08/05 10:19:36;;;;;;;6.85;0.50;;;25.70;66.60;;;;;;5050728;28;20061;-78
2022/08/05 10:22:02;;;;;;;4.28;0.40;;;25.90;67.90;;;;;;5052315;28;20086;-77
2022/08/05 10:24:30;;;;;;;1.95;0.30;;;26.00;68.00;;;;;;5051293;28;20041;-79
2022/08/05 10:26:58;;;;;;;4.20;0.55;;;26.10;66.70;;;;;;5071688;28;20095;-80
2022/08/05 10:29:25;;;;;;;1.40;0.40;;;26.20;65.30;;;;;;5053679;28;20041;-79
2022/08/05 10:31:51;;;;;;;3.17;0.30;;;26.20;64.00;;;;;;5053562;28;20381;-78
2022/08/05 10:34:17;;;;;;;1.23;0.38;;;26.30;62.30;;;;;;5036757;28;20047;-81
2022/08/05 10:36:43;;;;;;;1.40;0.30;;;26.20;61.40;;;;;;5071210;28;20495;-80
2022/08/05 10:39:23;;;;;;;2.53;0.50;;;26.20;60.10;;;;;;5055405;28;20102;-79
2022/08/05 10:41:57;;;;;;;0.55;0.22;;;26.10;58.00;;;;;;5058202;28;20472;-80
2022/08/05 10:44:24;;;;;;;0.98;0.30;;;26.20;59.30;;;;;;5051720;28;20043;-81
2022/08/05 10:46:55;;;;;;;0.88;0.38;;;26.30;59.20;;;;;;5066516;28;20078;-81
2022/08/05 10:49:23;;;;;;;2.80;0.30;;;26.20;58.70;;;;;;5052998;28;20106;-80
2022/08/05 10:51:56;;;;;;;1.52;0.43;;;26.30;58.00;;;;;;5062497;28;20094;-79
2022/08/05 10:54:23;;;;;;;2.33;0.50;;;26.30;57.10;;;;;;5067090;28;20060;-80
2022/08/05 10:56:57;;;;;;;1.10;0.30;;;26.30;56.80;;;;;;5029066;28;20110;-81
2022/08/05 10:59:28;;;;;;;0.95;0.38;;;26.30;55.10;;;;;;5049354;28;20041;-78
2022/08/05 11:02:07;;;;;;;5.25;0.40;;;26.40;53.30;;;;;;5039844;28;20032;-79
2022/08/05 11:04:42;;;;;;;2.75;0.30;;;26.20;50.10;;;;;;5067631;28;20087;-80
2022/08/05 11:07:10;;;;;;;1.70;0.32;;;26.10;49.70;;;;;;5046342;28;20442;-82
2022/08/05 11:09:38;;;;;;;4.68;0.30;;;26.20;51.20;;;;;;5042080;28;20088;-80
2022/08/05 11:12:04;;;;;;;1.13;0.40;;;26.20;51.10;;;;;;5035247;28;20040;-82
2022/08/05 11:14:35;;;;;;;0.63;0.20;;;26.20;51.00;;;;;;5053082;28;20086;-79
2022/08/05 11:17:23;;;;;;;0.30;0.20;;;26.30;50.10;;;;;;5043164;28;20095;-77
2022/08/05 11:19:48;;;;;;;0.50;0.20;;;26.20;47.50;;;;;;5054082;28;20415;-79
2022/08/05 11:22:38;;;;;;;2.17;0.22;;;26.00;49.80;;;;;;5070127;28;20028;-81
2022/08/05 11:25:30;;;;;;;1.35;0.35;;;26.00;46.30;;;;;;5052355;28;20072;-78
2022/08/05 11:28:08;;;;;;;1.65;0.30;;;26.10;47.40;;;;;;5031627;28;20372;-80
2022/08/05 11:30:56;;;;;;;1.85;0.52;;;26.10;46.90;;;;;;5039508;28;20037;-80
2022/08/05 11:33:36;;;;;;;0.85;0.40;;;26.00;45.50;;;;;;5039092;28;20083;-80
2022/08/05 11:36:09;;;;;;;2.30;0.35;;;26.10;46.40;;;;;;5039333;28;20476;-79
2022/08/05 11:38:37;;;;;;;2.42;0.40;;;25.80;47.20;;;;;;5053204;28;20067;-80
2022/08/05 11:41:34;;;;;;;1.52;0.60;;;25.50;46.60;;;;;;5069213;28;20047;-79
2022/08/05 11:44:11;;;;;;;0.85;0.30;;;25.30;46.60;;;;;;5055708;28;20056;-78
2022/08/05 11:46:53;;;;;;;1.48;0.30;;;25.10;46.90;;;;;;5064914;28;20036;-79
2022/08/05 11:49:19;;;;;;;;;;;24.90;47.40;;;;;;5034340;28;20044;-79
2022/08/05 11:51:50;;;;;;;1.17;0.22;;;24.70;47.00;;;;;;5050984;28;19921;-78
2022/08/05 11:54:32;;;;;;;1.10;0.35;;;24.60;48.80;;;;;;5052900;28;20040;-78
2022/08/05 11:56:59;;;;;;;3.70;0.40;;;24.60;48.40;;;;;;5035405;28;20080;-77
2022/08/05 11:59:27;;;;;;;1.67;0.30;;;24.50;49.40;;;;;;5035822;28;20130;-78
2022/08/05 12:02:06;;;;;;;1.08;0.15;;;24.50;50.40;;;;;;5070216;28;20040;-82
2022/08/05 12:04:45;;;;;;;0.60;0.20;;;24.50;50.40;;;;;;5048855;28;20111;-80
2022/08/05 12:07:13;;;;;;;0.70;0.20;;;24.50;50.20;;;;;;5036020;28;20491;-80
2022/08/05 12:09:43;;;;;;;0.45;0.30;;;24.50;50.70;;;;;;5055919;28;20446;-80
2022/08/05 12:12:09;;;;;;;1.33;0.50;;;24.70;51.50;;;;;;5055847;28;20056;-80
2022/08/05 12:14:44;;;;;;;2.05;0.30;;;25.00;51.70;;;;;;5056375;28;20553;-80
2022/08/05 12:17:11;;;;;;;0.50;0.30;;;25.20;51.10;;;;;;5056267;28;20575;-81
2022/08/05 12:19:46;;;;;;;2.72;0.30;;;25.00;50.60;;;;;;5038245;28;20060;-80
2022/08/05 12:22:13;;;;;;;5.82;0.32;;;24.70;50.70;;;;;;5055255;28;20090;-80
2022/08/05 12:24:44;;;;;;;0.50;0.15;;;24.60;51.60;;;;;;5056204;28;20051;-83
2022/08/05 12:27:17;;;;;;;5.13;0.43;;;24.70;52.20;;;;;;5037694;28;20067;-84
2022/08/05 12:29:43;;;;;;;1.17;0.22;;;24.70;52.50;;;;;;5053489;28;20043;-82
2022/08/05 12:32:08;;;;;;;0.85;0.85;;;24.90;52.30;;;;;;5054350;28;20474;-79
2022/08/05 12:34:36;;;;;;;0.50;0.20;;;24.80;51.90;;;;;;5054850;28;20040;-78
2022/08/05 12:37:11;;;;;;;3.22;0.40;;;24.70;52.60;;;;;;5072372;28;20519;-79
2022/08/05 12:39:38;;;;;;;3.42;0.40;;;24.50;53.30;;;;;;5072122;28;20047;-78
2022/08/05 12:42:11;;;;;;;1.80;0.47;;;24.20;53.40;;;;;;5054239;28;20040;-79
2022/08/05 12:44:36;;;;;;;0.60;0.35;;;24.00;53.60;;;;;;5072036;28;20033;-77
2022/08/05 12:47:03;;;;;;;3.05;0.40;;;23.80;54.60;;;;;;5054626;28;20147;-77
2022/08/05 12:49:40;;;;;;;1.10;0.40;;;23.90;55.40;;;;;;5053775;28;20060;-78
2022/08/05 12:52:12;;;;;;;1.77;0.30;;;24.10;55.00;;;;;;5054129;28;20086;-78
2022/08/05 12:54:39;;;;;;;1.25;0.32;;;24.00;55.40;;;;;;5037372;28;20513;-78
2022/08/05 12:57:06;;;;;;;3.05;0.47;;;23.80;55.70;;;;;;5037233;28;20045;-78
2022/08/05 12:59:42;;;;;;;1.83;0.30;;;23.70;56.50;;;;;;5071103;28;20115;-78
2022/08/05 13:02:10;;;;;;;1.23;0.20;;;23.60;56.70;;;;;;5053913;28;20476;-78